Terminal Aerodrome Forecast
Issued by NWS

Home | Current Version | Previous Version | Text Only | Print | Product List | Glossary On
Versions: 1 2 3 4 5 6 7 8 9 10 11 12 13 14 15 16 17 18 19 20 21 22 23
000
FTUS43 KMKX 181720
TAFUES
TAF
KUES 181720Z 1818/1918 25008KT 2SM BR BKN006
     FM182100 24009KT P6SM SCT020
     FM190300 22011KT P6SM SCT090 WS020/26040KT
     FM190600 23012G20KT P6SM SCT130 WS020/27045KT
     FM191000 25013G20KT P6SM SCT200=

USA.gov is the U.S. government's official web portal to all federal, state and local government web resources and services.